createdAt,value
2022-08-02T00:01:02.733Z,19.19
2022-08-02T00:03:31.773Z,19.14
2022-08-02T00:06:01.901Z,19.19
2022-08-02T00:08:30.630Z,19.19
2022-08-02T00:10:59.225Z,19.22
2022-08-02T00:13:27.661Z,19.26
2022-08-02T00:15:57.791Z,19.22
2022-08-02T00:18:26.543Z,19.25
2022-08-02T00:20:56.222Z,19.27
2022-08-02T00:23:25.841Z,19.25
2022-08-02T00:25:55.948Z,19.16
2022-08-02T00:28:27.534Z,19.22
2022-08-02T00:30:59.904Z,19.20
2022-08-02T00:34:26.184Z,19.25
2022-08-02T00:36:18.287Z,19.22
2022-08-02T00:38:48.109Z,19.18
2022-08-02T00:41:19.381Z,19.19
2022-08-02T00:43:49.761Z,19.17
2022-08-02T00:46:22.019Z,19.14
2022-08-02T00:48:50.769Z,19.13
2022-08-02T00:51:20.770Z,19.16
2022-08-02T00:53:49.969Z,19.23
2022-08-02T00:56:18.484Z,19.18
2022-08-02T00:58:46.973Z,19.20
2022-08-02T01:01:18.337Z,19.15
2022-08-02T01:03:49.382Z,19.15
2022-08-02T01:06:24.516Z,19.13
2022-08-02T01:08:55.374Z,19.10
2022-08-02T01:11:27.027Z,19.05
2022-08-02T01:13:58.120Z,19.01
2022-08-02T01:16:34.127Z,19.15
2022-08-02T01:19:19.473Z,19.13
2022-08-02T01:22:04.342Z,19.10
2022-08-02T01:24:46.116Z,19.05
2022-08-02T01:27:30.620Z,19.08
2022-08-02T01:30:04.106Z,19.13
2022-08-02T01:32:38.810Z,19.14
2022-08-02T01:35:13.080Z,19.15
2022-08-02T01:37:45.115Z,19.21
2022-08-02T01:40:25.172Z,19.19
2022-08-02T01:42:58.054Z,19.23
2022-08-02T01:45:31.854Z,19.24
2022-08-02T01:48:02.016Z,19.24
2022-08-02T01:50:35.059Z,19.21
2022-08-02T01:53:11.979Z,19.27
2022-08-02T01:55:57.857Z,19.28
2022-08-02T01:58:30.094Z,19.12
2022-08-02T02:01:02.523Z,19.06
2022-08-02T02:03:33.933Z,19.03
2022-08-02T02:06:05.135Z,19.06
2022-08-02T02:08:39.738Z,18.96
2022-08-02T02:12:10.951Z,18.98
2022-08-02T02:14:02.662Z,18.93
2022-08-02T02:16:35.225Z,18.99
2022-08-02T02:19:05.925Z,19.00
2022-08-02T02:21:35.266Z,18.98
2022-08-02T02:24:09.125Z,18.98
2022-08-02T02:26:52.561Z,18.98
2022-08-02T02:29:23.950Z,18.94
2022-08-02T02:31:57.295Z,18.95
2022-08-02T02:34:30.503Z,18.97
2022-08-02T02:37:04.453Z,18.93
2022-08-02T02:39:35.660Z,19.00
2022-08-02T02:42:09.486Z,18.94
2022-08-02T02:44:40.363Z,18.90
2022-08-02T02:47:13.081Z,18.86
2022-08-02T02:49:44.799Z,18.81
2022-08-02T02:52:16.879Z,18.81
2022-08-02T02:54:48.094Z,18.81
2022-08-02T02:57:18.015Z,18.90
2022-08-02T02:59:49.700Z,18.82
2022-08-02T03:02:22.254Z,18.91
2022-08-02T03:04:56.799Z,18.90
2022-08-02T03:07:27.742Z,18.89
2022-08-02T03:09:56.416Z,18.91
2022-08-02T03:12:31.383Z,18.90
2022-08-02T03:15:02.278Z,18.95
2022-08-02T03:17:45.029Z,18.90
2022-08-02T03:20:16.164Z,18.89
2022-08-02T03:22:46.163Z,18.96
2022-08-02T03:25:17.809Z,18.97
2022-08-02T03:27:48.199Z,18.96
2022-08-02T03:30:18.237Z,18.99
2022-08-02T03:32:52.079Z,19.05
2022-08-02T03:35:24.503Z,19.08
2022-08-02T03:37:55.930Z,19.04
2022-08-02T03:40:27.040Z,19.01
2022-08-02T03:42:58.862Z,19.11
2022-08-02T03:45:29.739Z,19.02
2022-08-02T03:48:00.661Z,19.13
2022-08-02T03:50:29.933Z,19.07
2022-08-02T03:52:58.512Z,19.04
2022-08-02T03:55:27.429Z,19.07
2022-08-02T03:57:56.390Z,18.98
2022-08-02T04:00:24.954Z,19.00
2022-08-02T04:02:55.222Z,19.08
2022-08-02T04:05:27.053Z,19.06
2022-08-02T04:08:01.261Z,18.98
2022-08-02T04:11:05.261Z,18.97
2022-08-02T04:13:36.158Z,18.92
2022-08-02T04:16:12.067Z,18.94
2022-08-02T04:18:51.777Z,18.92
2022-08-02T04:21:23.766Z,18.86
2022-08-02T04:23:53.352Z,18.83
2022-08-02T04:26:26.872Z,18.78
2022-08-02T04:28:59.364Z,18.75
2022-08-02T04:31:28.646Z,18.78
2022-08-02T04:33:58.306Z,18.67
2022-08-02T04:36:31.476Z,18.66
2022-08-02T04:39:00.660Z,18.69
2022-08-02T04:41:43.617Z,18.71
2022-08-02T04:44:12.920Z,18.72
2022-08-02T04:46:43.389Z,18.69
2022-08-02T04:49:13.541Z,18.73
2022-08-02T04:51:45.131Z,18.71
2022-08-02T04:54:14.790Z,18.70
2022-08-02T04:56:44.274Z,18.69
2022-08-02T04:59:12.714Z,18.72
2022-08-02T05:01:42.776Z,18.76
2022-08-02T05:04:11.502Z,18.75
2022-08-02T05:06:46.999Z,18.85
2022-08-02T05:09:16.925Z,18.77
2022-08-02T05:11:45.849Z,18.84
2022-08-02T05:14:23.252Z,18.79
2022-08-02T05:16:57.676Z,18.83
2022-08-02T05:19:26.367Z,18.77
2022-08-02T05:21:57.405Z,18.66
2022-08-02T05:24:25.899Z,18.63
2022-08-02T05:26:54.409Z,18.61
2022-08-02T05:29:23.437Z,18.64
2022-08-02T05:31:54.609Z,18.54
2022-08-02T05:34:23.279Z,18.58
2022-08-02T05:36:53.681Z,18.49
2022-08-02T05:39:24.732Z,18.47
2022-08-02T05:42:01.219Z,18.42
2022-08-02T05:44:29.991Z,18.44
2022-08-02T05:46:58.779Z,18.35
2022-08-02T05:49:27.477Z,18.35
2022-08-02T05:52:06.071Z,18.30
2022-08-02T05:54:46.339Z,18.29
2022-08-02T05:57:23.310Z,18.29
2022-08-02T06:00:08.137Z,18.28
2022-08-02T06:02:51.961Z,18.31
2022-08-02T06:05:22.997Z,18.25
2022-08-02T06:07:51.934Z,18.24
2022-08-02T06:10:23.990Z,18.22
2022-08-02T06:13:03.167Z,18.22
2022-08-02T06:15:32.503Z,18.22
2022-08-02T06:18:01.708Z,18.25
2022-08-02T06:20:36.137Z,18.24
2022-08-02T06:23:08.748Z,18.27
2022-08-02T06:25:50.331Z,18.28
2022-08-02T06:28:21.449Z,18.28
2022-08-02T06:30:51.561Z,18.37
2022-08-02T06:33:21.023Z,18.32
2022-08-02T06:36:01.052Z,18.35
2022-08-02T06:38:34.038Z,18.38
2022-08-02T06:41:07.160Z,18.46
2022-08-02T06:43:48.270Z,18.48
2022-08-02T06:47:08.379Z,18.51
2022-08-02T06:49:12.626Z,18.58
2022-08-02T06:51:48.409Z,18.65
2022-08-02T06:54:22.035Z,18.64
2022-08-02T06:57:01.665Z,18.69
2022-08-02T06:59:43.050Z,18.72
2022-08-02T07:02:14.150Z,18.82
2022-08-02T07:04:42.800Z,18.83
2022-08-02T07:07:11.571Z,18.82
2022-08-02T07:09:40.110Z,18.88
2022-08-02T07:12:31.822Z,18.92
2022-08-02T07:15:01.210Z,18.99
2022-08-02T07:17:30.905Z,19.05
2022-08-02T07:20:00.608Z,19.09
2022-08-02T07:22:30.424Z,19.10
2022-08-02T07:25:01.420Z,19.15
2022-08-02T07:27:31.632Z,19.17
2022-08-02T07:30:01.007Z,19.20
2022-08-02T07:32:32.214Z,19.24
2022-08-02T07:35:05.143Z,19.18
2022-08-02T07:37:54.921Z,19.25
2022-08-02T07:40:27.257Z,19.30
2022-08-02T07:43:03.571Z,19.32
2022-08-02T07:45:35.652Z,19.28
2022-08-02T07:48:05.278Z,19.31
2022-08-02T07:50:34.433Z,19.34
2022-08-02T07:53:05.459Z,19.32
2022-08-02T07:55:39.559Z,19.23
2022-08-02T07:58:11.497Z,19.24
2022-08-02T08:00:43.912Z,19.25
2022-08-02T08:03:13.119Z,19.24
2022-08-02T08:05:43.016Z,19.19
2022-08-02T08:08:16.938Z,19.24
2022-08-02T08:10:46.557Z,19.16
2022-08-02T08:13:16.664Z,19.17
2022-08-02T08:15:52.254Z,19.16
2022-08-02T08:18:21.971Z,19.21
2022-08-02T08:20:50.629Z,19.25
2022-08-02T08:23:19.505Z,19.25
2022-08-02T08:25:49.102Z,19.19
2022-08-02T08:28:19.274Z,19.21
2022-08-02T08:30:49.751Z,19.18
2022-08-02T08:33:18.436Z,19.11
2022-08-02T08:35:47.044Z,19.10
2022-08-02T08:38:16.414Z,19.12
2022-08-02T08:40:46.352Z,19.12
2022-08-02T08:43:15.323Z,19.04
2022-08-02T08:45:55.576Z,19.00
2022-08-02T08:48:30.377Z,19.08
2022-08-02T08:51:06.395Z,19.24
2022-08-02T08:53:39.197Z,19.46
2022-08-02T08:56:16.203Z,19.65
2022-08-02T08:58:47.887Z,19.74
2022-08-02T09:01:18.226Z,19.80
2022-08-02T09:03:47.403Z,19.70
2022-08-02T09:06:16.318Z,19.66
2022-08-02T09:08:45.174Z,19.61
2022-08-02T09:11:18.599Z,19.65
2022-08-02T09:13:56.671Z,19.66
2022-08-02T09:16:35.213Z,19.70
2022-08-02T09:19:20.921Z,19.84
2022-08-02T09:21:51.802Z,19.99
2022-08-02T09:24:22.073Z,20.03
2022-08-02T09:26:53.037Z,20.11
2022-08-02T09:29:28.197Z,20.33
2022-08-02T09:32:07.337Z,20.39
2022-08-02T09:34:50.616Z,20.35
2022-08-02T09:37:34.864Z,20.46
2022-08-02T09:40:04.218Z,20.63
2022-08-02T09:42:33.398Z,20.70
2022-08-02T09:45:04.217Z,20.88
2022-08-02T09:47:37.508Z,20.93
2022-08-02T09:50:07.827Z,20.89
2022-08-02T09:52:43.467Z,20.99
2022-08-02T09:55:13.368Z,20.94
2022-08-02T09:57:43.461Z,20.86
2022-08-02T10:00:31.573Z,20.95
2022-08-02T10:03:21.714Z,20.94
2022-08-02T10:05:59.118Z,20.93
2022-08-02T10:08:33.062Z,21.00
2022-08-02T10:11:03.833Z,20.92
2022-08-02T10:13:37.506Z,20.82
2022-08-02T10:16:07.654Z,20.73
2022-08-02T10:18:40.881Z,20.81
2022-08-02T10:21:17.032Z,20.78
2022-08-02T10:23:47.699Z,20.77
2022-08-02T10:26:18.979Z,20.69
2022-08-02T10:28:52.078Z,20.70
2022-08-02T10:31:34.841Z,20.63
2022-08-02T10:34:09.217Z,20.62
2022-08-02T10:36:40.781Z,20.61
2022-08-02T10:39:11.644Z,20.62
2022-08-02T10:41:46.730Z,20.61
2022-08-02T10:44:31.148Z,20.63
2022-08-02T10:47:25.870Z,20.67
2022-08-02T10:49:58.045Z,20.61
2022-08-02T10:52:27.300Z,20.57
2022-08-02T10:55:00.718Z,20.50
2022-08-02T10:57:31.894Z,20.62
2022-08-02T11:00:11.198Z,20.70
2022-08-02T11:02:45.223Z,20.68
2022-08-02T11:05:19.749Z,20.70
2022-08-02T11:07:50.695Z,20.67
2022-08-02T11:10:36.080Z,20.59
2022-08-02T11:13:14.508Z,20.58
2022-08-02T11:15:55.578Z,20.55
2022-08-02T11:18:25.797Z,20.58
2022-08-02T11:21:25.249Z,20.68
2022-08-02T11:23:54.179Z,20.77
2022-08-02T11:26:44.981Z,20.94
2022-08-02T11:29:15.576Z,21.04
2022-08-02T11:31:47.515Z,21.05
2022-08-02T11:34:37.779Z,21.27
2022-08-02T11:37:08.791Z,21.42
2022-08-02T11:39:38.585Z,21.59
2022-08-02T11:42:09.475Z,21.42
2022-08-02T11:44:42.795Z,21.48
2022-08-02T11:47:11.285Z,21.43
2022-08-02T11:49:39.811Z,21.42
2022-08-02T11:52:11.963Z,21.63
2022-08-02T11:54:45.032Z,21.81
2022-08-02T11:57:19.736Z,21.94
2022-08-02T11:59:52.041Z,21.74
2022-08-02T12:02:22.698Z,21.65
2022-08-02T12:04:58.131Z,21.25
2022-08-02T12:07:34.755Z,20.87
2022-08-02T12:10:08.480Z,20.60
2022-08-02T12:12:49.449Z,20.74
2022-08-02T12:15:35.222Z,21.02
2022-08-02T12:18:23.390Z,20.94
2022-08-02T12:20:56.922Z,21.42
2022-08-02T12:23:29.531Z,21.48
2022-08-02T12:26:02.305Z,22.19
2022-08-02T12:28:36.109Z,22.14
2022-08-02T12:31:04.487Z,21.92
2022-08-02T12:33:47.822Z,21.96
2022-08-02T12:36:17.901Z,22.04
2022-08-02T12:38:54.176Z,21.99
2022-08-02T12:41:30.914Z,22.62
2022-08-02T12:44:01.600Z,22.69
2022-08-02T12:46:31.707Z,22.78
2022-08-02T12:49:18.353Z,22.77
2022-08-02T12:51:56.611Z,22.82
2022-08-02T12:54:32.874Z,22.50
2022-08-02T12:57:12.866Z,22.21
2022-08-02T12:59:43.208Z,22.20
2022-08-02T13:02:14.698Z,22.01
2022-08-02T13:04:49.774Z,21.72
2022-08-02T13:07:20.154Z,21.64
2022-08-02T13:09:50.472Z,21.45
2022-08-02T13:12:19.107Z,21.47
2022-08-02T13:14:47.451Z,21.54
2022-08-02T13:17:15.774Z,21.83
2022-08-02T13:19:45.657Z,22.70
2022-08-02T13:22:20.269Z,23.28
2022-08-02T13:24:55.916Z,23.59
2022-08-02T13:27:27.006Z,23.77
2022-08-02T13:29:57.783Z,24.18
2022-08-02T13:32:28.166Z,24.27
2022-08-02T13:34:57.041Z,23.68
2022-08-02T13:37:26.623Z,23.30
2022-08-02T13:40:19.845Z,23.19
2022-08-02T13:42:46.235Z,23.34
2022-08-02T13:45:14.975Z,23.38
2022-08-02T13:48:03.591Z,23.44
2022-08-02T13:50:34.761Z,23.41
2022-08-02T13:53:03.601Z,23.59
2022-08-02T13:55:33.739Z,23.31
2022-08-02T13:58:02.738Z,23.52
2022-08-02T14:00:36.298Z,24.19
2022-08-02T14:03:07.696Z,24.57
2022-08-02T14:05:47.804Z,25.26
2022-08-02T14:08:19.572Z,24.74
2022-08-02T14:11:26.361Z,23.89
2022-08-02T14:14:16.915Z,23.84
2022-08-02T14:24:39.055Z,25.90
2022-08-02T14:27:09.041Z,25.37
2022-08-02T14:29:40.289Z,25.32
2022-08-02T14:32:11.091Z,25.24
2022-08-02T14:34:41.055Z,24.84
2022-08-02T14:37:09.624Z,25.78
2022-08-02T14:39:42.978Z,26.58
2022-08-02T14:42:29.673Z,26.47
2022-08-02T14:45:08.978Z,26.27
2022-08-02T14:47:39.955Z,25.82
2022-08-02T14:50:10.326Z,25.95
2022-08-02T14:52:39.352Z,25.45
2022-08-02T14:55:08.788Z,26.36
2022-08-02T14:57:52.408Z,27.25
2022-08-02T15:00:24.823Z,26.98
2022-08-02T15:02:53.439Z,27.79
2022-08-02T15:05:21.978Z,26.54
2022-08-02T15:07:51.545Z,26.90
2022-08-02T15:10:21.236Z,26.51
2022-08-02T15:12:51.738Z,27.10
2022-08-02T15:15:22.403Z,27.37
2022-08-02T15:17:51.150Z,27.87
2022-08-02T15:20:25.237Z,28.23
2022-08-02T15:22:55.031Z,28.56
2022-08-02T15:25:29.607Z,28.90
2022-08-02T15:27:58.759Z,29.26
2022-08-02T15:30:29.175Z,29.44
2022-08-02T15:32:58.814Z,28.91
2022-08-02T15:35:30.234Z,27.86
2022-08-02T15:37:59.177Z,26.68
2022-08-02T15:40:28.037Z,27.38
2022-08-02T15:42:57.748Z,28.78
2022-08-02T15:45:28.989Z,28.50
2022-08-02T15:47:58.576Z,26.90
2022-08-02T15:50:32.965Z,26.96
2022-08-02T15:53:02.401Z,28.09
2022-08-02T15:55:39.939Z,28.78
2022-08-02T15:58:22.529Z,29.34
2022-08-02T16:00:52.873Z,27.77
2022-08-02T16:03:21.545Z,28.26
2022-08-02T16:05:50.431Z,27.29
2022-08-02T16:08:19.069Z,27.41
2022-08-02T16:10:47.879Z,28.35
2022-08-02T16:13:36.384Z,28.90
2022-08-02T16:16:09.662Z,27.60
2022-08-02T16:18:39.482Z,28.05
2022-08-02T16:21:08.040Z,28.55
2022-08-02T16:24:00.634Z,29.96
2022-08-02T16:26:26.624Z,30.01
2022-08-02T16:28:55.208Z,29.05
2022-08-02T16:31:25.610Z,27.65
2022-08-02T16:33:57.164Z,27.47
2022-08-02T16:36:26.624Z,28.81
2022-08-02T16:38:56.608Z,29.76
2022-08-02T16:41:51.640Z,30.41
2022-08-02T16:44:15.962Z,29.55
2022-08-02T16:46:47.948Z,28.46
2022-08-02T16:50:07.036Z,30.00
2022-08-02T16:52:09.427Z,30.39
2022-08-02T16:54:46.285Z,30.90
2022-08-02T16:57:19.977Z,30.75
2022-08-02T16:59:57.458Z,30.64
2022-08-02T17:02:28.536Z,29.75
2022-08-02T17:04:57.879Z,30.88
2022-08-02T17:08:07.383Z,31.03
2022-08-02T17:10:18.879Z,30.97
2022-08-02T17:12:50.418Z,29.97
2022-08-02T17:16:16.161Z,30.61
2022-08-02T17:18:11.454Z,31.77
2022-08-02T17:20:39.803Z,31.14
2022-08-02T17:23:09.431Z,30.50
2022-08-02T17:25:52.566Z,30.03
2022-08-02T17:28:21.997Z,30.20
2022-08-02T17:31:00.736Z,30.44
2022-08-02T17:33:30.949Z,30.42
2022-08-02T17:36:00.773Z,30.46
2022-08-02T17:38:29.422Z,30.00
2022-08-02T17:40:58.950Z,30.07
2022-08-02T17:43:29.513Z,30.01
2022-08-02T17:46:00.743Z,30.35
2022-08-02T17:48:54.919Z,29.68
2022-08-02T17:52:15.534Z,29.52
2022-08-02T17:54:14.127Z,30.00
2022-08-02T17:56:43.113Z,29.45
2022-08-02T17:59:20.798Z,28.89
2022-08-02T18:01:52.873Z,29.04
2022-08-02T18:04:27.479Z,29.44
2022-08-02T18:06:58.660Z,29.89
2022-08-02T18:09:27.258Z,30.12
2022-08-02T18:11:55.861Z,29.54
2022-08-02T18:14:26.559Z,29.93
2022-08-02T18:16:55.396Z,30.06
2022-08-02T18:19:33.108Z,30.36
2022-08-02T18:22:11.538Z,30.80
2022-08-02T18:24:40.737Z,27.11
2022-08-02T18:27:09.873Z,26.17
2022-08-02T18:29:38.871Z,25.65
2022-08-02T18:32:11.365Z,25.54
2022-08-02T18:34:44.390Z,25.06
2022-08-02T18:37:17.628Z,24.57
2022-08-02T18:39:51.474Z,24.54
2022-08-02T18:42:20.359Z,24.16
2022-08-02T18:44:49.641Z,24.21
2022-08-02T18:47:18.216Z,24.00
2022-08-02T18:49:54.305Z,23.70
2022-08-02T18:52:31.273Z,23.66
2022-08-02T18:55:00.312Z,23.86
2022-08-02T18:58:16.865Z,23.92
2022-08-02T19:00:20.678Z,23.57
2022-08-02T19:02:55.054Z,23.55
2022-08-02T19:05:53.109Z,23.33
2022-08-02T19:08:15.243Z,22.95
2022-08-02T19:10:49.260Z,22.96
2022-08-02T19:13:19.820Z,22.96
2022-08-02T19:15:51.417Z,22.72
2022-08-02T19:18:26.899Z,22.73
2022-08-02T19:21:05.755Z,22.81
2022-08-02T19:23:36.056Z,22.39
2022-08-02T19:26:08.224Z,22.45
2022-08-02T19:28:39.514Z,22.26
2022-08-02T19:31:09.620Z,22.06
2022-08-02T19:34:06.414Z,22.04
2022-08-02T19:36:28.340Z,21.92
2022-08-02T19:38:57.088Z,21.74
2022-08-02T19:41:26.013Z,21.70
2022-08-02T19:44:25.452Z,21.65
2022-08-02T19:46:44.060Z,21.58
2022-08-02T19:49:39.668Z,21.44
2022-08-02T19:52:21.698Z,21.37
2022-08-02T19:57:43.758Z,21.44
2022-08-02T20:00:13.111Z,21.36
2022-08-02T20:02:50.120Z,21.22
2022-08-02T20:05:23.985Z,21.15
2022-08-02T20:07:56.391Z,21.21
2022-08-02T20:10:26.700Z,21.05
2022-08-02T20:12:56.167Z,20.97
2022-08-02T20:15:51.819Z,20.85
2022-08-02T20:18:15.829Z,20.80
2022-08-02T20:20:56.959Z,20.79
2022-08-02T20:23:33.566Z,20.75
2022-08-02T20:26:03.034Z,20.69
2022-08-02T20:28:35.584Z,20.69
2022-08-02T20:31:07.295Z,20.70
2022-08-02T20:33:56.202Z,20.65
2022-08-02T20:36:25.545Z,20.64
2022-08-02T20:38:55.846Z,20.77
2022-08-02T20:41:37.194Z,20.73
2022-08-02T20:44:15.735Z,20.74
2022-08-02T20:46:59.144Z,20.62
2022-08-02T20:49:41.344Z,20.58
2022-08-02T20:52:24.026Z,20.60
2022-08-02T20:54:54.868Z,20.42
2022-08-02T20:57:48.472Z,20.19
2022-08-02T21:00:12.873Z,20.11
2022-08-02T21:03:02.876Z,20.01
2022-08-02T21:08:22.817Z,19.77
2022-08-02T21:10:55.361Z,19.68
2022-08-02T21:13:29.203Z,19.59
2022-08-02T21:18:41.237Z,19.47
2022-08-02T21:21:11.777Z,19.40
2022-08-02T21:23:45.030Z,19.34
2022-08-02T21:26:25.783Z,19.23
2022-08-02T21:29:00.690Z,19.25
2022-08-02T21:31:33.695Z,19.33
2022-08-02T21:34:21.806Z,19.17
2022-08-02T21:36:55.962Z,19.19
2022-08-02T21:39:26.285Z,19.09
2022-08-02T21:41:56.352Z,18.96
2022-08-02T21:44:24.990Z,18.95
2022-08-02T21:46:58.739Z,18.93
2022-08-02T21:50:09.670Z,18.92
2022-08-02T21:52:19.197Z,18.91
2022-08-02T21:54:48.840Z,18.83
2022-08-02T21:57:20.086Z,18.73
2022-08-02T21:59:52.695Z,18.73
2022-08-02T22:02:31.692Z,18.67
2022-08-02T22:05:03.266Z,18.56
2022-08-02T22:07:38.238Z,18.57
2022-08-02T22:10:10.577Z,18.52
2022-08-02T22:12:41.421Z,18.47
2022-08-02T22:15:11.473Z,18.46
2022-08-02T22:17:53.325Z,18.52
2022-08-02T22:20:48.369Z,18.41
2022-08-02T22:23:22.454Z,18.39
2022-08-02T22:25:52.654Z,18.25
2022-08-02T22:28:37.281Z,18.23
2022-08-02T22:31:08.696Z,18.20
2022-08-02T22:34:00.960Z,18.12
2022-08-02T22:36:31.796Z,18.01
2022-08-02T22:39:01.987Z,17.94
2022-08-02T22:42:01.266Z,17.95
2022-08-02T22:44:20.971Z,17.88
2022-08-02T22:46:49.851Z,17.97
2022-08-02T22:49:38.812Z,17.87
2022-08-02T22:52:12.804Z,17.98
2022-08-02T22:55:03.740Z,17.94
2022-08-02T22:57:34.998Z,17.86
2022-08-02T22:59:01.820Z,19.79
2022-08-02T22:59:06.250Z,21.39
2022-08-02T23:00:30.825Z,17.93
2022-08-02T23:03:00.395Z,17.88
2022-08-02T23:05:29.269Z,17.84
2022-08-02T23:07:59.707Z,17.86
2022-08-02T23:10:28.234Z,17.87
2022-08-02T23:12:59.426Z,17.92
2022-08-02T23:15:48.827Z,17.98
2022-08-02T23:18:36.788Z,17.93
2022-08-02T23:21:05.722Z,17.96
2022-08-02T23:23:35.759Z,17.99
2022-08-02T23:26:06.713Z,18.08
2022-08-02T23:28:37.498Z,17.96
2022-08-02T23:31:37.469Z,17.81
2022-08-02T23:34:11.241Z,17.82
2022-08-02T23:36:39.631Z,17.87
2022-08-02T23:39:08.260Z,17.73
2022-08-02T23:41:36.780Z,17.80
2022-08-02T23:44:14.388Z,17.84
2022-08-02T23:46:43.883Z,17.85
2022-08-02T23:49:15.366Z,17.86
2022-08-02T23:51:43.832Z,17.80
2022-08-02T23:54:13.121Z,17.77
2022-08-02T23:56:42.462Z,17.74
2022-08-02T23:59:11.430Z,17.80
